sensor_id;sensor_type;location;lat;lon;timestamp;P1;durP1;ratioP1;P2;durP2;ratioP2
39218;SDS011;24934;52.752;6.964;2024-03-06T00:02:04;25.17;;;17.70;;
39218;SDS011;24934;52.752;6.964;2024-03-06T00:10:30;22.40;;;17.43;;
39218;SDS011;24934;52.752;6.964;2024-03-06T00:13:02;25.00;;;18.20;;
39218;SDS011;24934;52.752;6.964;2024-03-06T00:18:10;24.53;;;18.47;;
39218;SDS011;24934;52.752;6.964;2024-03-06T00:20:37;22.53;;;17.73;;
39218;SDS011;24934;52.752;6.964;2024-03-06T00:25:56;22.80;;;16.80;;
39218;SDS011;24934;52.752;6.964;2024-03-06T00:28:48;21.00;;;17.57;;
39218;SDS011;24934;52.752;6.964;2024-03-06T00:31:18;21.03;;;17.17;;
39218;SDS011;24934;52.752;6.964;2024-03-06T00:34:25;24.17;;;17.60;;
39218;SDS011;24934;52.752;6.964;2024-03-06T00:43:35;20.73;;;17.13;;
39218;SDS011;24934;52.752;6.964;2024-03-06T00:46:02;19.93;;;17.77;;
39218;SDS011;24934;52.752;6.964;2024-03-06T00:51:31;24.90;;;17.87;;
39218;SDS011;24934;52.752;6.964;2024-03-06T00:54:16;22.77;;;18.07;;
39218;SDS011;24934;52.752;6.964;2024-03-06T00:59:31;24.43;;;17.57;;
39218;SDS011;24934;52.752;6.964;2024-03-06T01:01:57;23.93;;;17.53;;
39218;SDS011;24934;52.752;6.964;2024-03-06T01:04:26;21.00;;;17.33;;
39218;SDS011;24934;52.752;6.964;2024-03-06T01:07:01;25.97;;;17.47;;
39218;SDS011;24934;52.752;6.964;2024-03-06T01:12:33;23.93;;;17.50;;
39218;SDS011;24934;52.752;6.964;2024-03-06T01:15:02;25.57;;;18.63;;
39218;SDS011;24934;52.752;6.964;2024-03-06T01:17:44;23.80;;;17.90;;
39218;SDS011;24934;52.752;6.964;2024-03-06T01:20:19;23.07;;;17.20;;
39218;SDS011;24934;52.752;6.964;2024-03-06T01:22:45;26.53;;;18.10;;
39218;SDS011;24934;52.752;6.964;2024-03-06T01:25:11;26.20;;;17.90;;
39218;SDS011;24934;52.752;6.964;2024-03-06T01:32:37;31.30;;;18.07;;
39218;SDS011;24934;52.752;6.964;2024-03-06T01:35:03;25.10;;;17.80;;
39218;SDS011;24934;52.752;6.964;2024-03-06T01:37:55;27.13;;;18.23;;
39218;SDS011;24934;52.752;6.964;2024-03-06T01:40:30;20.63;;;17.73;;
39218;SDS011;24934;52.752;6.964;2024-03-06T01:42:59;22.93;;;18.07;;
39218;SDS011;24934;52.752;6.964;2024-03-06T01:48:30;21.73;;;17.80;;
39218;SDS011;24934;52.752;6.964;2024-03-06T01:50:57;27.20;;;18.07;;
39218;SDS011;24934;52.752;6.964;2024-03-06T01:53:29;27.30;;;18.53;;
39218;SDS011;24934;52.752;6.964;2024-03-06T01:55:58;27.87;;;18.83;;
39218;SDS011;24934;52.752;6.964;2024-03-06T01:58:27;25.67;;;18.10;;
39218;SDS011;24934;52.752;6.964;2024-03-06T02:01:14;24.73;;;17.53;;
39218;SDS011;24934;52.752;6.964;2024-03-06T02:03:43;25.67;;;17.77;;
39218;SDS011;24934;52.752;6.964;2024-03-06T02:06:21;24.33;;;17.73;;
39218;SDS011;24934;52.752;6.964;2024-03-06T02:08:48;34.83;;;17.97;;
39218;SDS011;24934;52.752;6.964;2024-03-06T02:11:33;24.00;;;18.67;;
39218;SDS011;24934;52.752;6.964;2024-03-06T02:14:08;22.93;;;17.83;;
39218;SDS011;24934;52.752;6.964;2024-03-06T02:19:39;25.43;;;18.50;;
39218;SDS011;24934;52.752;6.964;2024-03-06T02:22:21;25.67;;;18.83;;
39218;SDS011;24934;52.752;6.964;2024-03-06T02:25:06;21.13;;;18.27;;
39218;SDS011;24934;52.752;6.964;2024-03-06T02:27:42;23.43;;;18.87;;
39218;SDS011;24934;52.752;6.964;2024-03-06T02:30:34;26.40;;;18.60;;
39218;SDS011;24934;52.752;6.964;2024-03-06T02:33:02;29.20;;;19.20;;
39218;SDS011;24934;52.752;6.964;2024-03-06T02:35:29;23.80;;;18.63;;
39218;SDS011;24934;52.752;6.964;2024-03-06T02:37:56;23.30;;;18.00;;
39218;SDS011;24934;52.752;6.964;2024-03-06T02:40:25;24.33;;;19.03;;
39218;SDS011;24934;52.752;6.964;2024-03-06T02:43:08;31.60;;;18.50;;
39218;SDS011;24934;52.752;6.964;2024-03-06T02:45:35;25.17;;;18.60;;
39218;SDS011;24934;52.752;6.964;2024-03-06T02:48:04;23.20;;;18.33;;
39218;SDS011;24934;52.752;6.964;2024-03-06T02:50:37;24.60;;;18.60;;
39218;SDS011;24934;52.752;6.964;2024-03-06T02:53:11;23.73;;;18.30;;
39218;SDS011;24934;52.752;6.964;2024-03-06T02:55:40;24.30;;;18.93;;
39218;SDS011;24934;52.752;6.964;2024-03-06T02:58:06;24.93;;;18.67;;
39218;SDS011;24934;52.752;6.964;2024-03-06T03:00:32;25.43;;;18.67;;
39218;SDS011;24934;52.752;6.964;2024-03-06T03:05:59;23.20;;;18.47;;
39218;SDS011;24934;52.752;6.964;2024-03-06T03:08:29;24.37;;;18.10;;
39218;SDS011;24934;52.752;6.964;2024-03-06T03:10:55;25.57;;;18.63;;
39218;SDS011;24934;52.752;6.964;2024-03-06T03:13:22;30.57;;;19.87;;
39218;SDS011;24934;52.752;6.964;2024-03-06T03:15:50;23.73;;;18.80;;
39218;SDS011;24934;52.752;6.964;2024-03-06T03:18:21;28.53;;;20.10;;
39218;SDS011;24934;52.752;6.964;2024-03-06T03:20:57;26.83;;;19.77;;
39218;SDS011;24934;52.752;6.964;2024-03-06T03:23:23;25.17;;;19.77;;
39218;SDS011;24934;52.752;6.964;2024-03-06T03:25:49;28.90;;;19.87;;
39218;SDS011;24934;52.752;6.964;2024-03-06T03:28:15;27.30;;;19.47;;
39218;SDS011;24934;52.752;6.964;2024-03-06T03:30:50;28.67;;;19.93;;
39218;SDS011;24934;52.752;6.964;2024-03-06T03:33:23;25.83;;;19.63;;
39218;SDS011;24934;52.752;6.964;2024-03-06T03:35:57;23.93;;;18.83;;
39218;SDS011;24934;52.752;6.964;2024-03-06T03:38:49;26.57;;;20.13;;
39218;SDS011;24934;52.752;6.964;2024-03-06T03:41:17;25.13;;;19.67;;
39218;SDS011;24934;52.752;6.964;2024-03-06T03:47:12;26.63;;;19.93;;
39218;SDS011;24934;52.752;6.964;2024-03-06T03:50:01;27.00;;;20.53;;
39218;SDS011;24934;52.752;6.964;2024-03-06T03:52:36;30.90;;;20.77;;
39218;SDS011;24934;52.752;6.964;2024-03-06T03:55:15;31.07;;;21.23;;
39218;SDS011;24934;52.752;6.964;2024-03-06T04:13:24;26.40;;;20.77;;
39218;SDS011;24934;52.752;6.964;2024-03-06T04:31:32;32.17;;;22.30;;
39218;SDS011;24934;52.752;6.964;2024-03-06T04:34:23;26.53;;;21.10;;
39218;SDS011;24934;52.752;6.964;2024-03-06T04:37:11;33.03;;;22.13;;
39218;SDS011;24934;52.752;6.964;2024-03-06T04:39:37;31.30;;;20.33;;
39218;SDS011;24934;52.752;6.964;2024-03-06T04:42:08;26.37;;;21.50;;
39218;SDS011;24934;52.752;6.964;2024-03-06T04:44:38;34.53;;;21.40;;
39218;SDS011;24934;52.752;6.964;2024-03-06T04:47:05;31.00;;;22.43;;
39218;SDS011;24934;52.752;6.964;2024-03-06T04:52:40;28.80;;;20.70;;
39218;SDS011;24934;52.752;6.964;2024-03-06T05:06:57;27.43;;;21.27;;
39218;SDS011;24934;52.752;6.964;2024-03-06T05:09:38;29.80;;;20.90;;
39218;SDS011;24934;52.752;6.964;2024-03-06T05:12:22;28.40;;;21.50;;
39218;SDS011;24934;52.752;6.964;2024-03-06T05:15:06;29.90;;;21.50;;
39218;SDS011;24934;52.752;6.964;2024-03-06T05:26:06;29.00;;;20.93;;
39218;SDS011;24934;52.752;6.964;2024-03-06T05:54:51;34.17;;;20.40;;
39218;SDS011;24934;52.752;6.964;2024-03-06T05:57:23;27.77;;;21.90;;
39218;SDS011;24934;52.752;6.964;2024-03-06T05:59:49;28.57;;;21.40;;
39218;SDS011;24934;52.752;6.964;2024-03-06T06:02:16;25.87;;;21.77;;
39218;SDS011;24934;52.752;6.964;2024-03-06T06:04:49;27.03;;;20.93;;
39218;SDS011;24934;52.752;6.964;2024-03-06T06:07:17;27.43;;;20.93;;
39218;SDS011;24934;52.752;6.964;2024-03-06T06:09:44;30.10;;;21.50;;
39218;SDS011;24934;52.752;6.964;2024-03-06T06:12:12;27.70;;;21.10;;
39218;SDS011;24934;52.752;6.964;2024-03-06T06:14:47;27.93;;;21.77;;
39218;SDS011;24934;52.752;6.964;2024-03-06T06:17:18;25.60;;;21.07;;
39218;SDS011;24934;52.752;6.964;2024-03-06T06:19:45;28.33;;;20.90;;
39218;SDS011;24934;52.752;6.964;2024-03-06T06:22:14;24.60;;;20.67;;
39218;SDS011;24934;52.752;6.964;2024-03-06T06:24:43;28.97;;;22.63;;
39218;SDS011;24934;52.752;6.964;2024-03-06T06:27:22;25.87;;;21.93;;
39218;SDS011;24934;52.752;6.964;2024-03-06T06:33:13;27.97;;;21.50;;
39218;SDS011;24934;52.752;6.964;2024-03-06T06:35:44;30.17;;;22.63;;
39218;SDS011;24934;52.752;6.964;2024-03-06T06:38:30;30.60;;;22.73;;
39218;SDS011;24934;52.752;6.964;2024-03-06T06:40:59;28.50;;;22.07;;
39218;SDS011;24934;52.752;6.964;2024-03-06T06:43:25;27.23;;;22.00;;
39218;SDS011;24934;52.752;6.964;2024-03-06T06:45:53;27.90;;;22.00;;
39218;SDS011;24934;52.752;6.964;2024-03-06T06:48:19;27.67;;;22.67;;
39218;SDS011;24934;52.752;6.964;2024-03-06T06:50:52;26.23;;;22.00;;
39218;SDS011;24934;52.752;6.964;2024-03-06T07:01:46;30.57;;;22.90;;
39218;SDS011;24934;52.752;6.964;2024-03-06T07:16:02;33.03;;;24.43;;
39218;SDS011;24934;52.752;6.964;2024-03-06T07:18:32;32.13;;;24.77;;
39218;SDS011;24934;52.752;6.964;2024-03-06T07:24:04;33.87;;;24.17;;
39218;SDS011;24934;52.752;6.964;2024-03-06T07:26:34;29.60;;;23.37;;
39218;SDS011;24934;52.752;6.964;2024-03-06T07:29:00;30.77;;;24.70;;
39218;SDS011;24934;52.752;6.964;2024-03-06T07:31:26;26.40;;;23.03;;
39218;SDS011;24934;52.752;6.964;2024-03-06T07:33:55;35.47;;;25.40;;
39218;SDS011;24934;52.752;6.964;2024-03-06T07:36:48;35.40;;;24.07;;
39218;SDS011;24934;52.752;6.964;2024-03-06T07:39:15;33.30;;;25.40;;
39218;SDS011;24934;52.752;6.964;2024-03-06T07:41:41;33.00;;;25.07;;
39218;SDS011;24934;52.752;6.964;2024-03-06T07:44:23;36.37;;;25.10;;
39218;SDS011;24934;52.752;6.964;2024-03-06T07:47:29;33.37;;;24.10;;
39218;SDS011;24934;52.752;6.964;2024-03-06T07:49:58;29.40;;;23.20;;
39218;SDS011;24934;52.752;6.964;2024-03-06T07:52:24;31.27;;;24.20;;
39218;SDS011;24934;52.752;6.964;2024-03-06T07:54:50;41.47;;;24.93;;
39218;SDS011;24934;52.752;6.964;2024-03-06T07:57:17;32.20;;;23.93;;
39218;SDS011;24934;52.752;6.964;2024-03-06T07:59:43;31.70;;;24.73;;
39218;SDS011;24934;52.752;6.964;2024-03-06T08:02:09;32.87;;;24.20;;
39218;SDS011;24934;52.752;6.964;2024-03-06T08:04:35;31.43;;;24.20;;
39218;SDS011;24934;52.752;6.964;2024-03-06T08:07:01;32.17;;;24.67;;
39218;SDS011;24934;52.752;6.964;2024-03-06T08:09:27;29.83;;;24.50;;
39218;SDS011;24934;52.752;6.964;2024-03-06T08:11:57;31.40;;;24.87;;
39218;SDS011;24934;52.752;6.964;2024-03-06T08:14:31;29.57;;;23.90;;
39218;SDS011;24934;52.752;6.964;2024-03-06T08:16:57;32.77;;;25.27;;
39218;SDS011;24934;52.752;6.964;2024-03-06T08:19:23;33.73;;;24.77;;
39218;SDS011;24934;52.752;6.964;2024-03-06T08:21:50;32.17;;;23.83;;
39218;SDS011;24934;52.752;6.964;2024-03-06T08:24:16;36.20;;;25.43;;
39218;SDS011;24934;52.752;6.964;2024-03-06T08:26:42;38.90;;;26.53;;
39218;SDS011;24934;52.752;6.964;2024-03-06T08:29:08;32.73;;;24.73;;
39218;SDS011;24934;52.752;6.964;2024-03-06T08:31:34;33.17;;;26.23;;
39218;SDS011;24934;52.752;6.964;2024-03-06T08:34:00;30.33;;;25.80;;
39218;SDS011;24934;52.752;6.964;2024-03-06T08:36:26;33.90;;;25.90;;
39218;SDS011;24934;52.752;6.964;2024-03-06T08:38:53;32.80;;;25.83;;
39218;SDS011;24934;52.752;6.964;2024-03-06T08:41:19;33.53;;;25.57;;
39218;SDS011;24934;52.752;6.964;2024-03-06T08:43:45;31.00;;;26.03;;
39218;SDS011;24934;52.752;6.964;2024-03-06T08:46:11;36.67;;;26.37;;
39218;SDS011;24934;52.752;6.964;2024-03-06T08:48:37;33.33;;;26.03;;
39218;SDS011;24934;52.752;6.964;2024-03-06T08:51:06;32.83;;;26.80;;
39218;SDS011;24934;52.752;6.964;2024-03-06T08:53:40;37.17;;;26.70;;
39218;SDS011;24934;52.752;6.964;2024-03-06T08:56:12;32.20;;;26.83;;
39218;SDS011;24934;52.752;6.964;2024-03-06T08:58:38;33.87;;;26.50;;
39218;SDS011;24934;52.752;6.964;2024-03-06T09:01:05;37.77;;;27.03;;
39218;SDS011;24934;52.752;6.964;2024-03-06T09:03:31;36.77;;;26.53;;
39218;SDS011;24934;52.752;6.964;2024-03-06T09:05:57;39.93;;;27.73;;
39218;SDS011;24934;52.752;6.964;2024-03-06T09:08:27;37.03;;;27.17;;
39218;SDS011;24934;52.752;6.964;2024-03-06T09:10:53;42.17;;;27.40;;
39218;SDS011;24934;52.752;6.964;2024-03-06T09:13:19;39.27;;;27.93;;
39218;SDS011;24934;52.752;6.964;2024-03-06T09:15:45;35.80;;;27.47;;
39218;SDS011;24934;52.752;6.964;2024-03-06T09:18:14;40.27;;;27.43;;
39218;SDS011;24934;52.752;6.964;2024-03-06T09:20:41;37.47;;;28.00;;
39218;SDS011;24934;52.752;6.964;2024-03-06T09:23:08;39.37;;;28.87;;
39218;SDS011;24934;52.752;6.964;2024-03-06T09:25:34;43.13;;;30.03;;
39218;SDS011;24934;52.752;6.964;2024-03-06T09:28:00;41.87;;;30.30;;
39218;SDS011;24934;52.752;6.964;2024-03-06T09:30:29;42.77;;;31.17;;
39218;SDS011;24934;52.752;6.964;2024-03-06T09:32:55;43.17;;;30.40;;
39218;SDS011;24934;52.752;6.964;2024-03-06T09:35:21;40.57;;;29.23;;
39218;SDS011;24934;52.752;6.964;2024-03-06T09:37:47;38.07;;;27.57;;
39218;SDS011;24934;52.752;6.964;2024-03-06T09:40:22;39.77;;;28.03;;
39218;SDS011;24934;52.752;6.964;2024-03-06T09:42:53;40.90;;;27.73;;
39218;SDS011;24934;52.752;6.964;2024-03-06T09:45:20;37.10;;;27.77;;
39218;SDS011;24934;52.752;6.964;2024-03-06T09:47:46;40.47;;;27.70;;
39218;SDS011;24934;52.752;6.964;2024-03-06T09:50:13;39.87;;;28.67;;
39218;SDS011;24934;52.752;6.964;2024-03-06T09:52:47;38.57;;;28.23;;
39218;SDS011;24934;52.752;6.964;2024-03-06T09:55:14;36.83;;;28.50;;
39218;SDS011;24934;52.752;6.964;2024-03-06T09:57:40;43.23;;;28.83;;
39218;SDS011;24934;52.752;6.964;2024-03-06T10:00:06;41.57;;;28.13;;
39218;SDS011;24934;52.752;6.964;2024-03-06T10:05:04;40.50;;;29.40;;
39218;SDS011;24934;52.752;6.964;2024-03-06T10:07:33;42.13;;;29.47;;
39218;SDS011;24934;52.752;6.964;2024-03-06T10:10:12;41.17;;;30.57;;
39218;SDS011;24934;52.752;6.964;2024-03-06T10:12:39;49.73;;;30.37;;
39218;SDS011;24934;52.752;6.964;2024-03-06T10:15:06;45.03;;;30.20;;
39218;SDS011;24934;52.752;6.964;2024-03-06T10:17:41;43.07;;;29.40;;
39218;SDS011;24934;52.752;6.964;2024-03-06T10:23:23;46.57;;;30.20;;
39218;SDS011;24934;52.752;6.964;2024-03-06T10:25:53;41.27;;;29.20;;
39218;SDS011;24934;52.752;6.964;2024-03-06T10:36:12;38.10;;;29.50;;
39218;SDS011;24934;52.752;6.964;2024-03-06T10:38:39;45.63;;;30.47;;
39218;SDS011;24934;52.752;6.964;2024-03-06T10:41:07;43.70;;;30.53;;
39218;SDS011;24934;52.752;6.964;2024-03-06T10:43:37;53.03;;;33.03;;
39218;SDS011;24934;52.752;6.964;2024-03-06T10:46:05;48.07;;;32.60;;
39218;SDS011;24934;52.752;6.964;2024-03-06T10:48:32;47.50;;;33.33;;
39218;SDS011;24934;52.752;6.964;2024-03-06T10:50:59;47.60;;;32.60;;
39218;SDS011;24934;52.752;6.964;2024-03-06T10:53:28;46.60;;;31.53;;
39218;SDS011;24934;52.752;6.964;2024-03-06T10:55:54;44.07;;;31.60;;
39218;SDS011;24934;52.752;6.964;2024-03-06T10:58:21;52.40;;;33.93;;
39218;SDS011;24934;52.752;6.964;2024-03-06T11:00:48;51.70;;;34.03;;
39218;SDS011;24934;52.752;6.964;2024-03-06T11:03:15;49.53;;;33.33;;
39218;SDS011;24934;52.752;6.964;2024-03-06T11:13:35;47.43;;;33.17;;
39218;SDS011;24934;52.752;6.964;2024-03-06T11:16:04;44.07;;;31.50;;
39218;SDS011;24934;52.752;6.964;2024-03-06T11:21:34;48.00;;;32.90;;
39218;SDS011;24934;52.752;6.964;2024-03-06T11:30:11;43.43;;;31.30;;
39218;SDS011;24934;52.752;6.964;2024-03-06T11:32:59;43.83;;;30.27;;
39218;SDS011;24934;52.752;6.964;2024-03-06T11:35:29;46.97;;;31.20;;
39218;SDS011;24934;52.752;6.964;2024-03-06T11:40:30;48.43;;;31.33;;
39218;SDS011;24934;52.752;6.964;2024-03-06T11:46:10;42.97;;;31.40;;
39218;SDS011;24934;52.752;6.964;2024-03-06T11:48:37;41.00;;;30.17;;
39218;SDS011;24934;52.752;6.964;2024-03-06T11:57:01;42.03;;;30.07;;
39218;SDS011;24934;52.752;6.964;2024-03-06T12:02:25;38.43;;;30.40;;
39218;SDS011;24934;52.752;6.964;2024-03-06T12:04:51;41.47;;;30.50;;
39218;SDS011;24934;52.752;6.964;2024-03-06T12:07:22;39.77;;;31.03;;
39218;SDS011;24934;52.752;6.964;2024-03-06T12:10:10;40.70;;;30.67;;
39218;SDS011;24934;52.752;6.964;2024-03-06T12:12:40;43.57;;;30.93;;
39218;SDS011;24934;52.752;6.964;2024-03-06T12:21:19;42.40;;;30.00;;
39218;SDS011;24934;52.752;6.964;2024-03-06T12:27:22;40.60;;;30.53;;
39218;SDS011;24934;52.752;6.964;2024-03-06T12:29:58;40.67;;;30.13;;
39218;SDS011;24934;52.752;6.964;2024-03-06T12:46:26;46.20;;;31.33;;
39218;SDS011;24934;52.752;6.964;2024-03-06T12:49:06;38.70;;;29.90;;
39218;SDS011;24934;52.752;6.964;2024-03-06T12:52:16;41.43;;;29.87;;
39218;SDS011;24934;52.752;6.964;2024-03-06T12:54:46;42.00;;;30.57;;
39218;SDS011;24934;52.752;6.964;2024-03-06T13:03:11;43.73;;;30.87;;
39218;SDS011;24934;52.752;6.964;2024-03-06T13:05:40;40.93;;;30.90;;
39218;SDS011;24934;52.752;6.964;2024-03-06T13:13:29;41.70;;;31.40;;
39218;SDS011;24934;52.752;6.964;2024-03-06T13:15:58;41.30;;;31.93;;
39218;SDS011;24934;52.752;6.964;2024-03-06T13:23:43;44.07;;;32.70;;
39218;SDS011;24934;52.752;6.964;2024-03-06T13:31:56;44.03;;;31.23;;
39218;SDS011;24934;52.752;6.964;2024-03-06T13:34:28;40.13;;;31.80;;
39218;SDS011;24934;52.752;6.964;2024-03-06T13:53:53;39.83;;;30.93;;
39218;SDS011;24934;52.752;6.964;2024-03-06T14:14:56;36.87;;;29.53;;
39218;SDS011;24934;52.752;6.964;2024-03-06T14:20:22;39.43;;;30.60;;
39218;SDS011;24934;52.752;6.964;2024-03-06T14:22:52;38.23;;;29.70;;
39218;SDS011;24934;52.752;6.964;2024-03-06T14:25:45;38.83;;;29.53;;
39218;SDS011;24934;52.752;6.964;2024-03-06T14:28:14;42.40;;;30.70;;
39218;SDS011;24934;52.752;6.964;2024-03-06T14:48:03;38.92;;;30.60;;
39218;SDS011;24934;52.752;6.964;2024-03-06T14:50:30;42.63;;;32.03;;
39218;SDS011;24934;52.752;6.964;2024-03-06T14:53:07;42.73;;;31.13;;
39218;SDS011;24934;52.752;6.964;2024-03-06T15:04:24;44.97;;;31.13;;
39218;SDS011;24934;52.752;6.964;2024-03-06T15:43:10;48.30;;;32.47;;
39218;SDS011;24934;52.752;6.964;2024-03-06T15:45:36;44.03;;;33.03;;
39218;SDS011;24934;52.752;6.964;2024-03-06T15:48:02;42.50;;;33.07;;
39218;SDS011;24934;52.752;6.964;2024-03-06T15:50:29;46.90;;;33.40;;
39218;SDS011;24934;52.752;6.964;2024-03-06T15:52:55;47.33;;;33.50;;
39218;SDS011;24934;52.752;6.964;2024-03-06T15:55:24;43.13;;;32.33;;
39218;SDS011;24934;52.752;6.964;2024-03-06T15:57:53;45.20;;;33.27;;
39218;SDS011;24934;52.752;6.964;2024-03-06T16:00:20;47.80;;;33.50;;
39218;SDS011;24934;52.752;6.964;2024-03-06T16:02:50;46.10;;;33.87;;
39218;SDS011;24934;52.752;6.964;2024-03-06T16:05:17;43.33;;;33.00;;
39218;SDS011;24934;52.752;6.964;2024-03-06T16:07:44;43.93;;;33.93;;
39218;SDS011;24934;52.752;6.964;2024-03-06T16:10:10;46.77;;;33.90;;
39218;SDS011;24934;52.752;6.964;2024-03-06T16:12:36;49.07;;;34.20;;
39218;SDS011;24934;52.752;6.964;2024-03-06T16:15:03;53.93;;;36.63;;
39218;SDS011;24934;52.752;6.964;2024-03-06T16:17:30;47.30;;;33.90;;
39218;SDS011;24934;52.752;6.964;2024-03-06T16:19:56;49.67;;;34.37;;
39218;SDS011;24934;52.752;6.964;2024-03-06T16:22:22;46.50;;;33.63;;
39218;SDS011;24934;52.752;6.964;2024-03-06T16:24:48;49.33;;;33.93;;
39218;SDS011;24934;52.752;6.964;2024-03-06T16:27:22;48.60;;;33.40;;
39218;SDS011;24934;52.752;6.964;2024-03-06T16:29:50;47.00;;;34.57;;
39218;SDS011;24934;52.752;6.964;2024-03-06T16:32:19;43.83;;;32.30;;
39218;SDS011;24934;52.752;6.964;2024-03-06T16:34:49;47.70;;;32.70;;
39218;SDS011;24934;52.752;6.964;2024-03-06T16:37:16;42.50;;;31.20;;
39218;SDS011;24934;52.752;6.964;2024-03-06T16:39:44;43.67;;;31.87;;
39218;SDS011;24934;52.752;6.964;2024-03-06T16:42:14;44.23;;;31.80;;
39218;SDS011;24934;52.752;6.964;2024-03-06T16:44:41;42.97;;;32.53;;
39218;SDS011;24934;52.752;6.964;2024-03-06T16:47:08;45.20;;;31.83;;
39218;SDS011;24934;52.752;6.964;2024-03-06T16:49:35;46.67;;;32.67;;
39218;SDS011;24934;52.752;6.964;2024-03-06T16:52:03;47.87;;;33.53;;
39218;SDS011;24934;52.752;6.964;2024-03-06T16:54:30;46.17;;;31.80;;
39218;SDS011;24934;52.752;6.964;2024-03-06T16:56:58;47.17;;;33.33;;
39218;SDS011;24934;52.752;6.964;2024-03-06T16:59:27;47.37;;;32.97;;
39218;SDS011;24934;52.752;6.964;2024-03-06T17:01:53;51.80;;;35.77;;
39218;SDS011;24934;52.752;6.964;2024-03-06T17:04:24;51.40;;;34.30;;
39218;SDS011;24934;52.752;6.964;2024-03-06T17:06:53;48.03;;;33.63;;
39218;SDS011;24934;52.752;6.964;2024-03-06T17:09:22;47.70;;;33.27;;
39218;SDS011;24934;52.752;6.964;2024-03-06T17:11:48;50.93;;;35.50;;
39218;SDS011;24934;52.752;6.964;2024-03-06T17:14:15;45.97;;;33.27;;
39218;SDS011;24934;52.752;6.964;2024-03-06T17:16:41;50.00;;;33.30;;
39218;SDS011;24934;52.752;6.964;2024-03-06T17:19:07;47.97;;;33.03;;
39218;SDS011;24934;52.752;6.964;2024-03-06T17:21:33;47.13;;;33.00;;
39218;SDS011;24934;52.752;6.964;2024-03-06T17:24:05;50.07;;;34.57;;
39218;SDS011;24934;52.752;6.964;2024-03-06T17:26:34;51.00;;;33.53;;
39218;SDS011;24934;52.752;6.964;2024-03-06T17:29:03;54.13;;;34.57;;
39218;SDS011;24934;52.752;6.964;2024-03-06T17:31:30;47.83;;;33.90;;
39218;SDS011;24934;52.752;6.964;2024-03-06T17:33:57;53.73;;;36.13;;
39218;SDS011;24934;52.752;6.964;2024-03-06T17:36:25;52.20;;;34.60;;
39218;SDS011;24934;52.752;6.964;2024-03-06T17:38:56;52.97;;;35.43;;
39218;SDS011;24934;52.752;6.964;2024-03-06T17:41:23;55.87;;;36.03;;
39218;SDS011;24934;52.752;6.964;2024-03-06T17:43:50;54.50;;;35.17;;
39218;SDS011;24934;52.752;6.964;2024-03-06T17:46:21;58.90;;;36.90;;
39218;SDS011;24934;52.752;6.964;2024-03-06T17:48:48;58.80;;;36.93;;
39218;SDS011;24934;52.752;6.964;2024-03-06T17:51:18;56.03;;;37.07;;
39218;SDS011;24934;52.752;6.964;2024-03-06T17:56:53;52.83;;;35.47;;
39218;SDS011;24934;52.752;6.964;2024-03-06T17:59:23;54.93;;;36.27;;
39218;SDS011;24934;52.752;6.964;2024-03-06T18:01:51;50.77;;;34.57;;
39218;SDS011;24934;52.752;6.964;2024-03-06T18:04:28;56.37;;;35.17;;
39218;SDS011;24934;52.752;6.964;2024-03-06T18:07:53;55.13;;;35.60;;
39218;SDS011;24934;52.752;6.964;2024-03-06T18:10:46;56.03;;;36.00;;
39218;SDS011;24934;52.752;6.964;2024-03-06T18:13:45;55.53;;;36.03;;
39218;SDS011;24934;52.752;6.964;2024-03-06T18:16:17;53.80;;;35.07;;
39218;SDS011;24934;52.752;6.964;2024-03-06T18:22:33;59.57;;;36.47;;
39218;SDS011;24934;52.752;6.964;2024-03-06T18:25:48;53.43;;;35.17;;
39218;SDS011;24934;52.752;6.964;2024-03-06T18:28:17;61.47;;;37.07;;
39218;SDS011;24934;52.752;6.964;2024-03-06T18:30:43;55.20;;;36.73;;
39218;SDS011;24934;52.752;6.964;2024-03-06T18:33:18;59.63;;;37.17;;
39218;SDS011;24934;52.752;6.964;2024-03-06T18:35:55;58.10;;;37.40;;
39218;SDS011;24934;52.752;6.964;2024-03-06T18:38:22;58.90;;;36.97;;
39218;SDS011;24934;52.752;6.964;2024-03-06T18:40:51;53.40;;;35.53;;
39218;SDS011;24934;52.752;6.964;2024-03-06T18:43:55;55.27;;;35.33;;
39218;SDS011;24934;52.752;6.964;2024-03-06T18:46:24;58.40;;;37.83;;
39218;SDS011;24934;52.752;6.964;2024-03-06T18:48:59;58.70;;;38.17;;
39218;SDS011;24934;52.752;6.964;2024-03-06T18:51:25;58.47;;;37.10;;
39218;SDS011;24934;52.752;6.964;2024-03-06T18:53:52;59.17;;;36.10;;
39218;SDS011;24934;52.752;6.964;2024-03-06T18:56:18;70.43;;;38.43;;
39218;SDS011;24934;52.752;6.964;2024-03-06T18:58:44;61.87;;;38.33;;
39218;SDS011;24934;52.752;6.964;2024-03-06T19:01:11;61.73;;;37.80;;
39218;SDS011;24934;52.752;6.964;2024-03-06T19:03:37;62.93;;;40.63;;
39218;SDS011;24934;52.752;6.964;2024-03-06T19:06:04;61.10;;;39.37;;
39218;SDS011;24934;52.752;6.964;2024-03-06T19:08:30;65.33;;;40.73;;
39218;SDS011;24934;52.752;6.964;2024-03-06T19:10:56;67.47;;;40.50;;
39218;SDS011;24934;52.752;6.964;2024-03-06T19:13:22;68.60;;;41.40;;
39218;SDS011;24934;52.752;6.964;2024-03-06T19:15:48;62.27;;;40.07;;
39218;SDS011;24934;52.752;6.964;2024-03-06T19:18:16;63.27;;;40.07;;
39218;SDS011;24934;52.752;6.964;2024-03-06T19:20:45;66.13;;;40.93;;
39218;SDS011;24934;52.752;6.964;2024-03-06T19:26:33;71.97;;;41.97;;
39218;SDS011;24934;52.752;6.964;2024-03-06T19:29:38;69.17;;;41.90;;
39218;SDS011;24934;52.752;6.964;2024-03-06T19:32:04;62.33;;;39.97;;
39218;SDS011;24934;52.752;6.964;2024-03-06T19:34:34;70.73;;;41.73;;
39218;SDS011;24934;52.752;6.964;2024-03-06T19:37:00;71.67;;;42.47;;
39218;SDS011;24934;52.752;6.964;2024-03-06T19:39:26;72.23;;;41.70;;
39218;SDS011;24934;52.752;6.964;2024-03-06T19:41:52;72.63;;;41.43;;
39218;SDS011;24934;52.752;6.964;2024-03-06T19:44:20;69.07;;;42.27;;
39218;SDS011;24934;52.752;6.964;2024-03-06T19:46:51;69.27;;;42.40;;
39218;SDS011;24934;52.752;6.964;2024-03-06T19:52:39;65.40;;;41.40;;
39218;SDS011;24934;52.752;6.964;2024-03-06T19:55:07;70.43;;;40.70;;
39218;SDS011;24934;52.752;6.964;2024-03-06T19:57:34;67.43;;;41.63;;
39218;SDS011;24934;52.752;6.964;2024-03-06T20:00:00;67.97;;;41.33;;
39218;SDS011;24934;52.752;6.964;2024-03-06T20:02:35;69.23;;;41.20;;
39218;SDS011;24934;52.752;6.964;2024-03-06T20:05:01;69.47;;;42.00;;
39218;SDS011;24934;52.752;6.964;2024-03-06T20:07:27;72.10;;;40.67;;
39218;SDS011;24934;52.752;6.964;2024-03-06T20:09:53;73.97;;;41.83;;
39218;SDS011;24934;52.752;6.964;2024-03-06T20:12:19;71.90;;;42.50;;
39218;SDS011;24934;52.752;6.964;2024-03-06T20:14:45;69.77;;;41.47;;
39218;SDS011;24934;52.752;6.964;2024-03-06T20:17:11;69.87;;;41.37;;
39218;SDS011;24934;52.752;6.964;2024-03-06T20:19:38;64.47;;;39.97;;
39218;SDS011;24934;52.752;6.964;2024-03-06T20:22:04;71.20;;;41.60;;
39218;SDS011;24934;52.752;6.964;2024-03-06T20:24:30;68.30;;;42.23;;
39218;SDS011;24934;52.752;6.964;2024-03-06T20:26:56;68.57;;;40.90;;
39218;SDS011;24934;52.752;6.964;2024-03-06T20:29:22;70.93;;;41.37;;
39218;SDS011;24934;52.752;6.964;2024-03-06T20:31:48;68.80;;;41.87;;
39218;SDS011;24934;52.752;6.964;2024-03-06T20:34:18;68.47;;;41.23;;
39218;SDS011;24934;52.752;6.964;2024-03-06T20:36:45;67.07;;;40.33;;
39218;SDS011;24934;52.752;6.964;2024-03-06T20:39:13;69.37;;;41.63;;